createdAt,value
2018-12-01T00:00:50.661Z,39.50
2018-12-01T00:01:50.815Z,39.80
2018-12-01T00:02:50.974Z,39.70
2018-12-01T00:03:51.090Z,41.00
2018-12-01T00:04:51.436Z,38.80
2018-12-01T00:05:51.546Z,39.20
2018-12-01T00:06:51.748Z,41.90
2018-12-01T00:07:51.867Z,40.40
2018-12-01T00:08:51.987Z,40.50
2018-12-01T00:09:52.269Z,40.50
2018-12-01T00:10:52.368Z,39.80
2018-12-01T00:11:52.492Z,41.80
2018-12-01T00:12:52.313Z,41.50
2018-12-01T00:13:52.625Z,40.00
2018-12-01T00:14:53.251Z,40.50
2018-12-01T00:15:53.360Z,38.20
2018-12-01T00:16:53.476Z,38.90
2018-12-01T00:17:53.359Z,40.50
2018-12-01T00:18:53.654Z,38.20
2018-12-01T00:19:53.738Z,39.70
2018-12-01T00:20:53.838Z,39.00
2018-12-01T00:21:53.949Z,41.40
2018-12-01T00:22:53.919Z,39.30
2018-12-01T00:23:54.673Z,40.00
2018-12-01T00:24:54.464Z,42.20
2018-12-01T00:25:54.744Z,42.30
2018-12-01T00:26:55.117Z,40.10
2018-12-01T00:27:55.415Z,41.10
2018-12-01T00:28:55.685Z,40.80
2018-12-01T00:29:55.999Z,43.60
2018-12-01T00:30:56.299Z,43.00
2018-12-01T00:31:56.803Z,42.80
2018-12-01T00:32:57.136Z,41.40
2018-12-01T00:33:57.434Z,41.80
2018-12-01T00:35:57.748Z,42.80
2018-12-01T00:36:58.062Z,41.30
2018-12-01T00:37:58.389Z,42.80
2018-12-01T00:38:58.661Z,43.80
2018-12-01T00:39:58.949Z,44.40
2018-12-01T00:40:59.292Z,42.30
2018-12-01T00:41:59.609Z,43.40
2018-12-01T00:43:00.010Z,44.30
2018-12-01T00:44:00.293Z,43.30
2018-12-01T00:45:00.558Z,42.70
2018-12-01T00:46:00.875Z,42.30
2018-12-01T00:47:01.179Z,42.60
2018-12-01T00:48:01.453Z,43.10
2018-12-01T00:49:01.738Z,45.60
2018-12-01T00:50:02.251Z,44.50
2018-12-01T00:51:02.664Z,43.20
2018-12-01T00:52:02.691Z,42.90
2018-12-01T00:53:03.308Z,42.90
2018-12-01T00:54:03.363Z,45.40
2018-12-01T00:55:03.418Z,43.40
2018-12-01T00:56:03.721Z,42.90
2018-12-01T00:57:03.876Z,44.50
2018-12-01T00:58:04.054Z,45.20
2018-12-01T00:59:04.211Z,41.10
2018-12-01T01:00:04.371Z,41.10
2018-12-01T01:01:04.349Z,39.90
2018-12-01T01:02:04.435Z,36.50
2018-12-01T01:03:04.606Z,38.30
2018-12-01T01:04:04.772Z,41.10
2018-12-01T01:05:04.955Z,39.30
2018-12-01T01:06:05.047Z,40.30
2018-12-01T01:07:05.282Z,40.30
2018-12-01T01:08:05.474Z,36.20
2018-12-01T01:09:05.567Z,37.80
2018-12-01T01:10:05.694Z,37.50
2018-12-01T01:11:05.882Z,34.80
2018-12-01T01:12:06.100Z,35.50
2018-12-01T01:13:06.167Z,35.50
2018-12-01T01:14:06.263Z,36.70
2018-12-01T01:15:06.319Z,37.40
2018-12-01T01:16:06.398Z,35.60
2018-12-01T01:17:06.567Z,35.30
2018-12-01T01:18:06.729Z,36.20
2018-12-01T01:19:06.879Z,34.50
2018-12-01T01:20:07.006Z,36.40
2018-12-01T01:21:07.226Z,37.20
2018-12-01T01:22:07.324Z,36.50
2018-12-01T01:23:07.455Z,35.80
2018-12-01T01:24:07.543Z,32.20
2018-12-01T01:25:07.626Z,32.90
2018-12-01T01:26:08.036Z,32.00
2018-12-01T01:27:08.408Z,33.30
2018-12-01T01:28:08.532Z,33.10
2018-12-01T01:29:08.631Z,31.90
2018-12-01T01:30:08.511Z,33.20
2018-12-01T01:31:08.951Z,35.00
2018-12-01T01:32:08.926Z,35.20
2018-12-01T01:33:09.262Z,32.80
2018-12-01T01:34:09.234Z,33.40
2018-12-01T01:35:09.884Z,31.70
2018-12-01T01:36:09.739Z,33.50
2018-12-01T01:37:10.086Z,32.90
2018-12-01T01:38:10.382Z,32.60
2018-12-01T01:39:10.729Z,32.40
2018-12-01T01:40:11.340Z,32.90
2018-12-01T01:41:11.433Z,31.60
2018-12-01T01:42:11.734Z,31.30
2018-12-01T01:43:12.057Z,31.60
2018-12-01T01:44:12.351Z,30.90
2018-12-01T01:45:12.800Z,30.60
2018-12-01T01:46:12.926Z,31.20
2018-12-01T01:47:13.446Z,28.90
2018-12-01T01:48:13.251Z,30.80
2018-12-01T01:49:13.574Z,30.70
2018-12-01T01:50:14.083Z,31.20
2018-12-01T01:51:13.944Z,31.00
2018-12-01T01:52:14.223Z,31.20
2018-12-01T01:53:14.513Z,31.70
2018-12-01T01:54:14.786Z,30.20
2018-12-01T01:55:15.387Z,30.50
2018-12-01T01:56:15.171Z,30.50
2018-12-01T01:57:15.521Z,30.60
2018-12-01T01:58:15.839Z,30.40
2018-12-01T01:59:16.192Z,29.60
2018-12-01T02:00:16.813Z,29.60
2018-12-01T02:01:16.485Z,30.60
2018-12-01T02:02:16.754Z,30.80
2018-12-01T02:03:17.070Z,28.80
2018-12-01T02:04:17.367Z,30.10
2018-12-01T02:05:17.662Z,29.40
2018-12-01T02:06:17.888Z,29.30
2018-12-01T02:08:18.490Z,30.00
2018-12-01T02:09:18.605Z,29.70
2018-12-01T02:10:18.723Z,27.70
2018-12-01T02:11:18.916Z,29.20
2018-12-01T02:12:19.035Z,27.50
2018-12-01T02:13:19.152Z,27.80
2018-12-01T02:14:19.287Z,26.60
2018-12-01T02:15:19.392Z,27.00
2018-12-01T02:16:19.576Z,28.80
2018-12-01T02:17:19.700Z,26.60
2018-12-01T02:18:19.834Z,29.30
2018-12-01T02:19:20.022Z,28.10
2018-12-01T02:20:20.158Z,29.20
2018-12-01T02:21:20.327Z,29.60
2018-12-01T02:22:20.668Z,29.70
2018-12-01T02:23:20.857Z,28.70
2018-12-01T02:24:20.995Z,29.00
2018-12-01T02:25:21.100Z,29.40
2018-12-01T02:26:21.207Z,30.20
2018-12-01T02:27:21.300Z,30.40
2018-12-01T02:28:21.403Z,29.00
2018-12-01T02:29:21.481Z,29.60
2018-12-01T02:30:21.548Z,30.70
2018-12-01T02:31:21.618Z,28.90
2018-12-01T02:32:21.694Z,29.70
2018-12-01T02:33:21.802Z,28.20
2018-12-01T02:34:21.952Z,27.80
2018-12-01T02:35:22.061Z,29.10
2018-12-01T02:36:22.443Z,28.60
2018-12-01T02:37:22.506Z,28.00
2018-12-01T02:38:22.609Z,30.90
2018-12-01T02:39:22.696Z,27.70
2018-12-01T02:40:22.806Z,28.50
2018-12-01T02:41:22.908Z,30.10
2018-12-01T02:42:23.013Z,30.30
2018-12-01T02:43:23.107Z,29.70
2018-12-01T02:44:23.197Z,29.30
2018-12-01T02:45:23.574Z,0.00
2018-12-01T02:46:23.897Z,28.20
2018-12-01T02:47:24.410Z,29.80
2018-12-01T02:48:24.290Z,27.10
2018-12-01T02:49:24.585Z,26.40
2018-12-01T02:50:25.079Z,27.00
2018-12-01T02:51:25.106Z,25.70
2018-12-01T02:52:25.373Z,28.00
2018-12-01T02:53:25.680Z,27.60
2018-12-01T02:54:26.170Z,26.20
2018-12-01T02:55:26.606Z,27.20
2018-12-01T02:56:26.578Z,26.80
2018-12-01T02:57:26.884Z,25.30
2018-12-01T02:58:27.332Z,26.60
2018-12-01T02:59:27.635Z,25.50
2018-12-01T03:00:27.927Z,25.50
2018-12-01T03:01:28.208Z,27.40
2018-12-01T03:02:28.495Z,27.40
2018-12-01T03:03:28.775Z,27.10
2018-12-01T03:04:29.061Z,28.20
2018-12-01T03:05:29.344Z,27.50
2018-12-01T03:06:29.648Z,25.20
2018-12-01T03:07:29.934Z,25.60
2018-12-01T03:08:30.208Z,25.90
2018-12-01T03:09:30.475Z,26.10
2018-12-01T03:10:30.755Z,27.60
2018-12-01T03:11:31.109Z,27.40
2018-12-01T03:12:31.557Z,25.90
2018-12-01T03:13:31.851Z,27.40
2018-12-01T03:14:32.131Z,27.60
2018-12-01T03:15:32.405Z,28.70
2018-12-01T03:16:32.700Z,28.30
2018-12-01T03:17:33.011Z,26.30
2018-12-01T03:18:33.617Z,26.00
2018-12-01T03:19:33.724Z,25.30
2018-12-01T03:20:33.833Z,24.10
2018-12-01T03:21:33.950Z,24.60
2018-12-01T03:22:34.063Z,25.50
2018-12-01T03:23:34.159Z,24.30
2018-12-01T03:24:34.289Z,24.00
2018-12-01T03:25:34.405Z,25.60
2018-12-01T03:26:34.625Z,25.30
2018-12-01T03:27:34.763Z,23.90
2018-12-01T03:28:34.817Z,24.10
2018-12-01T03:29:34.927Z,0.00
2018-12-01T03:30:35.047Z,25.20
2018-12-01T03:31:35.214Z,24.80
2018-12-01T03:32:35.381Z,24.70
2018-12-01T03:33:35.637Z,23.40
2018-12-01T03:34:35.800Z,25.30
2018-12-01T03:35:35.875Z,24.10
2018-12-01T03:36:35.926Z,24.80
2018-12-01T03:37:36.054Z,25.90
2018-12-01T03:38:36.045Z,24.20
2018-12-01T03:39:36.090Z,25.00
2018-12-01T03:40:36.229Z,25.50
2018-12-01T03:41:36.343Z,26.80
2018-12-01T03:42:36.413Z,26.40
2018-12-01T03:43:36.474Z,25.30
2018-12-01T03:44:36.531Z,26.60
2018-12-01T03:45:36.590Z,25.90
2018-12-01T03:46:36.684Z,26.60
2018-12-01T03:47:36.710Z,25.70
2018-12-01T03:48:36.935Z,29.00
2018-12-01T03:49:37.067Z,26.60
2018-12-01T03:50:37.265Z,29.30
2018-12-01T03:51:37.373Z,27.70
2018-12-01T03:52:37.487Z,29.50
2018-12-01T03:53:37.653Z,28.00
2018-12-01T03:54:37.723Z,27.80
2018-12-01T03:55:37.789Z,29.70
2018-12-01T03:56:37.880Z,29.70
2018-12-01T03:57:37.959Z,28.20
2018-12-01T03:58:38.045Z,29.70
2018-12-01T03:59:38.103Z,28.60
2018-12-01T04:00:38.184Z,29.80
2018-12-01T04:01:38.307Z,28.70
2018-12-01T04:02:38.441Z,27.50
2018-12-01T04:03:38.570Z,30.90
2018-12-01T04:04:38.648Z,28.10
2018-12-01T04:05:38.737Z,31.60
2018-12-01T04:06:38.834Z,29.40
2018-12-01T04:07:38.869Z,30.60
2018-12-01T04:08:38.847Z,31.40
2018-12-01T04:09:39.425Z,28.40
2018-12-01T04:10:39.321Z,28.20
2018-12-01T04:11:39.692Z,58.70
2018-12-01T04:12:39.683Z,32.20
2018-12-01T04:13:39.979Z,28.80
2018-12-01T04:14:40.230Z,30.40
2018-12-01T04:15:40.528Z,29.90
2018-12-01T04:16:40.778Z,32.30
2018-12-01T04:17:41.022Z,29.70
2018-12-01T04:18:41.301Z,30.30
2018-12-01T04:19:41.658Z,29.60
2018-12-01T04:20:41.748Z,30.70
2018-12-01T04:21:42.229Z,31.30
2018-12-01T04:22:42.585Z,29.10
2018-12-01T04:23:42.904Z,30.60
2018-12-01T04:24:43.181Z,31.40
2018-12-01T04:25:43.547Z,28.90
2018-12-01T04:26:43.838Z,29.90
2018-12-01T04:27:44.096Z,31.00
2018-12-01T04:28:44.370Z,31.50
2018-12-01T04:29:44.686Z,30.40
2018-12-01T04:30:44.946Z,31.50
2018-12-01T04:31:45.228Z,30.70
2018-12-01T04:32:45.512Z,29.90
2018-12-01T04:33:46.019Z,29.20
2018-12-01T04:34:46.265Z,31.20
2018-12-01T04:35:46.514Z,30.90
2018-12-01T04:36:46.788Z,30.40
2018-12-01T04:37:46.935Z,29.00
2018-12-01T04:38:47.107Z,29.10
2018-12-01T04:39:47.363Z,29.30
2018-12-01T04:40:47.633Z,28.60
2018-12-01T04:41:48.154Z,28.80
2018-12-01T04:42:48.005Z,28.90
2018-12-01T04:43:48.594Z,28.50
2018-12-01T04:44:48.716Z,31.60
2018-12-01T04:45:48.848Z,31.40
2018-12-01T04:46:48.981Z,32.00
2018-12-01T04:47:49.142Z,47.50
2018-12-01T04:48:49.294Z,30.60
2018-12-01T04:49:49.423Z,40.10
2018-12-01T04:50:49.529Z,31.10
2018-12-01T04:51:49.693Z,30.30
2018-12-01T04:52:49.833Z,49.70
2018-12-01T04:53:49.972Z,31.50
2018-12-01T04:54:50.091Z,34.20
2018-12-01T04:55:50.281Z,29.30
2018-12-01T04:56:50.435Z,31.60
2018-12-01T04:57:50.593Z,51.10
2018-12-01T04:58:50.755Z,32.80
2018-12-01T04:59:50.943Z,31.40
2018-12-01T05:00:51.073Z,35.50
2018-12-01T05:01:51.176Z,33.50
2018-12-01T05:02:51.473Z,32.10
2018-12-01T05:03:51.531Z,32.50
2018-12-01T05:04:51.871Z,35.60
2018-12-01T05:05:52.064Z,33.00
2018-12-01T05:06:52.175Z,32.50
2018-12-01T05:07:52.303Z,33.80
2018-12-01T05:08:52.383Z,32.70
2018-12-01T05:09:52.492Z,34.00
2018-12-01T05:10:53.365Z,34.80
2018-12-01T05:11:53.463Z,32.20
2018-12-01T05:12:53.558Z,32.10
2018-12-01T05:13:53.622Z,35.50
2018-12-01T05:14:53.727Z,31.10
2018-12-01T05:15:53.733Z,31.20
2018-12-01T05:16:53.768Z,31.90
2018-12-01T05:17:53.821Z,33.50
2018-12-01T05:18:53.914Z,32.80
2018-12-01T05:19:53.944Z,33.80
2018-12-01T05:20:54.013Z,32.90
2018-12-01T05:21:54.288Z,34.70
2018-12-01T05:22:54.585Z,32.30
2018-12-01T05:23:54.850Z,33.10
2018-12-01T05:24:55.146Z,33.20
2018-12-01T05:25:55.429Z,111.30
2018-12-01T05:26:55.775Z,52.60
2018-12-01T05:27:56.086Z,37.80
2018-12-01T05:28:56.480Z,34.90
2018-12-01T05:29:56.805Z,36.20
2018-12-01T05:30:57.145Z,35.50
2018-12-01T05:31:57.507Z,35.80
2018-12-01T05:32:57.782Z,34.20
2018-12-01T05:33:58.136Z,35.20
2018-12-01T05:34:58.433Z,36.10
2018-12-01T05:35:58.713Z,35.50
2018-12-01T05:36:59.003Z,36.30
2018-12-01T05:37:59.392Z,37.60
2018-12-01T05:38:59.315Z,34.90
2018-12-01T05:39:59.600Z,36.10
2018-12-01T05:40:59.899Z,34.90
2018-12-01T05:42:00.183Z,35.50
2018-12-01T05:43:00.450Z,36.20
2018-12-01T05:44:00.769Z,38.60
2018-12-01T05:45:01.176Z,37.10
2018-12-01T05:46:01.745Z,43.70
2018-12-01T05:47:01.610Z,35.50
2018-12-01T05:48:01.920Z,36.80
2018-12-01T05:49:02.447Z,36.30
2018-12-01T05:50:02.571Z,36.50
2018-12-01T05:51:02.657Z,37.00
2018-12-01T05:52:02.651Z,36.30
2018-12-01T05:53:02.929Z,34.50
2018-12-01T05:54:03.058Z,35.50
2018-12-01T05:55:02.925Z,34.30
2018-12-01T05:56:03.669Z,35.50
2018-12-01T05:57:03.799Z,35.40
2018-12-01T05:58:03.994Z,36.70
2018-12-01T05:59:04.038Z,35.90
2018-12-01T06:00:04.213Z,35.40
2018-12-01T06:01:04.550Z,35.20
2018-12-01T06:02:07.968Z,34.90
2018-12-01T06:04:05.178Z,35.30
2018-12-01T06:05:05.338Z,35.90
2018-12-01T06:06:05.815Z,35.40
2018-12-01T06:07:05.936Z,33.30
2018-12-01T06:08:06.017Z,33.80
2018-12-01T06:09:06.127Z,32.20
2018-12-01T06:10:06.222Z,34.50
2018-12-01T06:11:06.439Z,34.40
2018-12-01T06:12:06.538Z,33.30
2018-12-01T06:13:06.723Z,33.20
2018-12-01T06:14:06.862Z,33.60
2018-12-01T06:15:07.050Z,33.30
2018-12-01T06:16:07.271Z,34.50
2018-12-01T06:17:07.384Z,33.00
2018-12-01T06:18:07.474Z,35.00
2018-12-01T06:20:07.580Z,32.10
2018-12-01T06:21:07.627Z,34.20
2018-12-01T06:22:07.693Z,32.70
2018-12-01T06:23:07.587Z,34.40
2018-12-01T06:24:08.111Z,34.30
2018-12-01T06:25:08.205Z,34.80
2018-12-01T06:26:08.438Z,33.60
2018-12-01T06:27:08.238Z,34.80
2018-12-01T06:28:08.833Z,35.50
2018-12-01T06:29:08.949Z,33.70
2018-12-01T06:30:08.812Z,34.90
2018-12-01T06:31:08.962Z,33.60
2018-12-01T06:32:09.345Z,34.60
2018-12-01T06:33:09.635Z,33.50
2018-12-01T06:34:09.937Z,34.20
2018-12-01T06:35:10.522Z,33.80
2018-12-01T06:36:10.298Z,32.50
2018-12-01T06:37:10.627Z,33.20
2018-12-01T06:38:10.947Z,34.20
2018-12-01T06:39:11.257Z,34.00
2018-12-01T06:41:11.833Z,34.00
2018-12-01T06:42:11.621Z,34.50
2018-12-01T06:43:11.977Z,34.50
2018-12-01T06:44:12.255Z,34.90
2018-12-01T06:45:12.663Z,33.90
2018-12-01T06:46:12.923Z,36.30
2018-12-01T06:47:13.216Z,35.50
2018-12-01T06:48:13.505Z,36.40
2018-12-01T06:49:13.890Z,34.50
2018-12-01T06:50:14.233Z,33.40
2018-12-01T06:51:14.622Z,33.00
2018-12-01T06:52:14.745Z,35.60
2018-12-01T06:53:14.604Z,35.90
2018-12-01T06:54:15.257Z,34.80
2018-12-01T06:55:15.395Z,36.70
2018-12-01T06:56:15.169Z,35.00
2018-12-01T06:57:15.516Z,36.00
2018-12-01T06:58:15.807Z,33.60
2018-12-01T06:59:16.121Z,34.80
2018-12-01T07:00:16.739Z,34.90
2018-12-01T07:01:16.841Z,35.90
2018-12-01T07:02:17.270Z,34.70
2018-12-01T07:03:17.630Z,34.10
2018-12-01T07:04:18.156Z,36.10
2018-12-01T07:05:18.215Z,36.20
2018-12-01T07:06:18.135Z,35.50
2018-12-01T07:07:18.804Z,34.20
2018-12-01T07:08:18.918Z,33.10
2018-12-01T07:09:19.082Z,34.30
2018-12-01T07:10:19.257Z,31.30
2018-12-01T07:11:19.417Z,34.20
2018-12-01T07:12:19.564Z,33.20
2018-12-01T07:13:19.756Z,32.60
2018-12-01T07:14:19.886Z,31.60
2018-12-01T07:15:20.078Z,32.70
2018-12-01T07:16:20.290Z,32.50
2018-12-01T07:17:20.426Z,32.00
2018-12-01T07:18:20.598Z,32.60
2018-12-01T07:19:20.966Z,32.10
2018-12-01T07:20:21.124Z,32.40
2018-12-01T07:21:21.206Z,32.00
2018-12-01T07:22:21.285Z,32.50
2018-12-01T07:23:21.411Z,31.50
2018-12-01T07:24:21.562Z,32.90
2018-12-01T07:25:21.669Z,32.60
2018-12-01T07:26:21.835Z,34.30
2018-12-01T07:27:21.982Z,33.90
2018-12-01T07:28:22.113Z,33.20
2018-12-01T07:29:22.246Z,35.40
2018-12-01T07:30:22.309Z,33.80
2018-12-01T07:31:22.419Z,34.60
2018-12-01T07:32:22.531Z,34.10
2018-12-01T07:33:22.659Z,34.80
2018-12-01T07:34:22.744Z,34.10
2018-12-01T07:35:22.841Z,34.90
2018-12-01T07:36:22.930Z,33.20
2018-12-01T07:37:23.037Z,34.20
2018-12-01T07:38:23.127Z,36.50
2018-12-01T07:39:23.264Z,35.00
2018-12-01T07:40:23.393Z,35.60
2018-12-01T07:41:23.497Z,35.00
2018-12-01T07:42:23.607Z,35.00
2018-12-01T07:43:23.736Z,35.50
2018-12-01T07:44:23.723Z,35.00
2018-12-01T07:45:24.470Z,34.30
2018-12-01T07:46:24.598Z,34.10
2018-12-01T07:47:24.656Z,33.30
2018-12-01T07:48:24.743Z,33.10
2018-12-01T07:49:24.511Z,34.60
2018-12-01T07:50:24.779Z,35.80
2018-12-01T07:51:25.078Z,35.10
2018-12-01T07:52:25.362Z,35.50
2018-12-01T07:53:25.872Z,36.20
2018-12-01T07:54:25.727Z,34.60
2018-12-01T07:55:26.096Z,34.20
2018-12-01T07:56:26.463Z,34.00
2018-12-01T07:57:26.998Z,35.40
2018-12-01T07:58:26.837Z,35.80
2018-12-01T07:59:27.322Z,35.30
2018-12-01T08:00:27.745Z,34.20
2018-12-01T08:01:28.027Z,36.60
2018-12-01T08:02:28.469Z,36.50
2018-12-01T08:03:28.774Z,39.20
2018-12-01T08:04:29.210Z,37.50
2018-12-01T08:05:29.501Z,35.70
2018-12-01T08:06:30.154Z,37.60
2018-12-01T08:07:30.455Z,37.30
2018-12-01T08:08:31.079Z,36.80
2018-12-01T08:09:30.857Z,36.00
2018-12-01T08:10:31.423Z,38.00
2018-12-01T08:11:31.716Z,36.20
2018-12-01T08:12:32.001Z,37.10
2018-12-01T08:13:32.321Z,36.10
2018-12-01T08:14:32.691Z,35.20
2018-12-01T08:15:33.089Z,34.90
2018-12-01T08:16:33.750Z,36.20
2018-12-01T08:17:33.898Z,35.10
2018-12-01T08:18:34.044Z,36.70
2018-12-01T08:19:34.219Z,35.90
2018-12-01T08:20:34.340Z,35.90
2018-12-01T08:21:36.171Z,36.90
2018-12-01T08:22:34.560Z,36.50
2018-12-01T08:23:34.692Z,34.80
2018-12-01T08:24:34.892Z,36.50
2018-12-01T08:25:35.089Z,36.40
2018-12-01T08:26:35.267Z,35.60
2018-12-01T08:27:35.408Z,33.70
2018-12-01T08:28:35.551Z,34.30
2018-12-01T08:29:35.740Z,34.80
2018-12-01T08:30:35.943Z,32.50
2018-12-01T08:31:36.319Z,31.80
2018-12-01T08:32:36.369Z,32.80
2018-12-01T08:33:36.483Z,33.20
2018-12-01T08:34:36.603Z,34.40
2018-12-01T08:35:36.731Z,33.10
2018-12-01T08:36:36.988Z,31.90
2018-12-01T08:37:37.108Z,31.90
2018-12-01T08:38:37.221Z,33.80
2018-12-01T08:39:37.345Z,31.50
2018-12-01T08:40:37.421Z,31.90
2018-12-01T08:41:37.532Z,33.40
2018-12-01T08:42:37.613Z,32.00
2018-12-01T08:43:37.684Z,34.10
2018-12-01T08:44:37.752Z,31.90
2018-12-01T08:45:38.823Z,33.00
2018-12-01T08:46:38.290Z,33.00
2018-12-01T08:47:38.521Z,32.60
2018-12-01T08:48:38.522Z,32.50
2018-12-01T08:49:39.126Z,31.40
2018-12-01T08:50:38.847Z,29.40
2018-12-01T08:52:39.576Z,32.00
2018-12-01T08:53:39.706Z,32.50
2018-12-01T08:55:39.717Z,29.60
2018-12-01T08:56:39.532Z,30.50
2018-12-01T08:57:39.824Z,30.70
2018-12-01T08:58:40.132Z,31.30
2018-12-01T08:59:40.513Z,32.30
2018-12-01T09:00:40.817Z,30.10
2018-12-01T09:01:41.250Z,29.90
2018-12-01T09:02:41.593Z,28.60
2018-12-01T09:03:41.788Z,27.50
2018-12-01T09:04:42.119Z,28.60
2018-12-01T09:05:42.426Z,28.60
2018-12-01T09:06:42.702Z,28.00
2018-12-01T09:07:43.058Z,27.80
2018-12-01T09:08:43.345Z,28.00
2018-12-01T09:09:43.962Z,28.60
2018-12-01T09:10:43.758Z,28.00
2018-12-01T09:11:44.076Z,27.30
2018-12-01T09:12:44.358Z,27.30
2018-12-01T09:13:44.662Z,27.20
2018-12-01T09:14:45.244Z,27.10
2018-12-01T09:15:45.109Z,26.00
2018-12-01T09:16:46.146Z,26.00
2018-12-01T09:17:45.574Z,25.50
2018-12-01T09:18:45.874Z,25.00
2018-12-01T09:19:46.221Z,25.90
2018-12-01T09:20:46.505Z,24.60
2018-12-01T09:21:46.834Z,23.70
2018-12-01T09:22:47.152Z,23.40
2018-12-01T09:23:47.424Z,25.30
2018-12-01T09:24:47.712Z,23.40
2018-12-01T09:25:48.052Z,22.70
2018-12-01T09:26:48.638Z,21.60
2018-12-01T09:27:48.740Z,20.90
2018-12-01T09:28:48.898Z,20.50
2018-12-01T09:29:49.045Z,20.80
2018-12-01T09:30:49.212Z,20.40
2018-12-01T09:31:49.357Z,21.10
2018-12-01T09:32:49.545Z,19.30
2018-12-01T09:33:49.750Z,19.90
2018-12-01T09:34:50.026Z,20.90
2018-12-01T09:35:50.218Z,22.30
2018-12-01T09:36:50.351Z,23.20
2018-12-01T09:37:50.499Z,20.60
2018-12-01T09:38:51.894Z,21.10
2018-12-01T09:39:51.478Z,20.80
2018-12-01T09:40:50.952Z,22.20
2018-12-01T09:41:51.075Z,21.90
2018-12-01T09:42:51.169Z,22.20
2018-12-01T09:43:51.295Z,21.60
2018-12-01T09:44:51.406Z,22.00
2018-12-01T09:45:51.494Z,22.40
2018-12-01T09:46:51.734Z,21.50
2018-12-01T09:47:51.811Z,21.40
2018-12-01T09:48:52.406Z,21.00
2018-12-01T09:49:52.566Z,21.50
2018-12-01T09:50:52.674Z,22.20
2018-12-01T09:51:52.765Z,20.50
2018-12-01T09:52:52.860Z,20.40
2018-12-01T09:53:53.259Z,19.70
2018-12-01T09:54:53.496Z,21.10
2018-12-01T09:55:53.445Z,20.90
2018-12-01T09:56:53.531Z,21.20
2018-12-01T09:57:53.649Z,20.70
2018-12-01T09:58:53.826Z,19.50
2018-12-01T09:59:53.846Z,19.30
2018-12-01T10:00:53.937Z,20.10
2018-12-01T10:01:54.070Z,19.50
2018-12-01T10:02:53.967Z,21.30
2018-12-01T10:03:54.051Z,19.20
2018-12-01T10:04:54.580Z,19.10
2018-12-01T10:05:54.658Z,19.00
2018-12-01T10:06:55.346Z,18.00
2018-12-01T10:07:55.260Z,19.00
2018-12-01T10:08:55.548Z,17.30
2018-12-01T10:09:55.829Z,19.00
2018-12-01T10:10:56.391Z,19.00
2018-12-01T10:11:56.210Z,17.90
2018-12-01T10:12:56.470Z,19.50
2018-12-01T10:13:56.817Z,18.30
2018-12-01T10:14:57.140Z,18.90
2018-12-01T10:15:57.519Z,18.20
2018-12-01T10:16:57.789Z,18.80
2018-12-01T10:17:58.091Z,17.80
2018-12-01T10:18:58.403Z,18.40
2018-12-01T10:19:58.708Z,19.00
2018-12-01T10:20:58.995Z,19.10
2018-12-01T10:21:59.355Z,19.50
2018-12-01T10:22:59.736Z,18.80
2018-12-01T10:25:00.146Z,19.10
2018-12-01T10:26:00.441Z,20.10
2018-12-01T10:27:00.987Z,19.40
2018-12-01T10:28:00.771Z,19.90
2018-12-01T10:30:01.165Z,20.90
2018-12-01T10:31:01.495Z,19.80
2018-12-01T10:32:01.439Z,20.00
2018-12-01T10:33:01.933Z,20.70
2018-12-01T10:34:02.259Z,20.00
2018-12-01T10:35:02.662Z,19.30
2018-12-01T10:36:02.962Z,19.60
2018-12-01T10:37:03.124Z,20.50
2018-12-01T10:38:03.312Z,20.70
2018-12-01T10:39:03.787Z,19.40
2018-12-01T10:40:03.740Z,18.80
2018-12-01T10:41:03.836Z,18.60
2018-12-01T10:42:04.034Z,18.60
2018-12-01T10:43:04.319Z,17.80
2018-12-01T10:44:04.545Z,16.90
2018-12-01T10:45:04.971Z,17.60
2018-12-01T10:46:05.186Z,18.40
2018-12-01T10:47:05.294Z,17.30
2018-12-01T10:48:05.493Z,18.70
2018-12-01T10:49:05.872Z,16.50
2018-12-01T10:50:07.577Z,17.90
2018-12-01T10:51:06.431Z,16.00
2018-12-01T10:52:07.642Z,17.00
2018-12-01T10:53:06.993Z,16.20
2018-12-01T10:54:07.236Z,16.80
2018-12-01T10:55:07.591Z,17.00
2018-12-01T10:56:07.691Z,14.50
2018-12-01T10:57:10.743Z,15.00
2018-12-01T10:58:08.215Z,16.10
2018-12-01T10:59:08.071Z,15.40
2018-12-01T11:00:08.456Z,16.90
2018-12-01T11:01:08.629Z,15.30
2018-12-01T11:02:09.021Z,16.00
2018-12-01T11:03:09.433Z,16.00
2018-12-01T11:04:09.755Z,15.70
2018-12-01T11:05:10.260Z,15.30
2018-12-01T11:06:13.069Z,14.50
2018-12-01T11:07:10.292Z,15.40
2018-12-01T11:08:10.398Z,15.20
2018-12-01T11:09:14.999Z,16.00
2018-12-01T11:10:11.578Z,16.60
2018-12-01T11:11:11.634Z,15.60
2018-12-01T11:12:11.515Z,15.40
2018-12-01T11:13:11.970Z,15.80
2018-12-01T11:14:12.250Z,15.70
2018-12-01T11:15:12.648Z,16.40
2018-12-01T11:16:12.934Z,16.00
2018-12-01T11:17:13.274Z,15.60
2018-12-01T11:18:13.562Z,15.70
2018-12-01T11:19:13.876Z,17.20
2018-12-01T11:20:14.438Z,15.10
2018-12-01T11:21:14.244Z,16.70
2018-12-01T11:22:14.736Z,16.70
2018-12-01T11:23:15.162Z,16.90
2018-12-01T11:24:15.079Z,16.30
2018-12-01T11:25:15.281Z,15.10
2018-12-01T11:26:15.097Z,16.00
2018-12-01T11:27:15.961Z,16.30
2018-12-01T11:28:15.689Z,15.90
2018-12-01T11:29:16.142Z,16.10
2018-12-01T11:30:16.811Z,15.80
2018-12-01T11:31:16.660Z,15.00
2018-12-01T11:32:16.952Z,14.90
2018-12-01T11:33:17.284Z,14.90
2018-12-01T11:34:17.577Z,15.00
2018-12-01T11:35:18.115Z,14.20
2018-12-01T11:36:18.033Z,14.70
2018-12-01T11:37:18.289Z,14.60
2018-12-01T11:39:18.899Z,12.30
2018-12-01T11:40:19.038Z,13.40
2018-12-01T11:41:19.184Z,13.30
2018-12-01T11:42:19.304Z,12.70
2018-12-01T11:43:19.427Z,13.00
2018-12-01T11:44:19.535Z,11.50
2018-12-01T11:45:19.648Z,11.90
2018-12-01T11:46:19.836Z,11.70
2018-12-01T11:47:19.979Z,11.40
2018-12-01T11:48:20.145Z,10.70
2018-12-01T11:49:20.282Z,10.50
2018-12-01T11:50:20.410Z,9.80
2018-12-01T11:51:20.560Z,10.40
2018-12-01T11:52:20.710Z,11.10
2018-12-01T11:53:20.821Z,10.40
2018-12-01T11:54:20.922Z,10.80
2018-12-01T11:55:20.993Z,10.40
2018-12-01T11:56:21.168Z,10.70
2018-12-01T11:57:21.240Z,10.10
2018-12-01T11:58:21.320Z,10.10
2018-12-01T11:59:21.465Z,10.50
2018-12-01T12:00:21.516Z,9.80
2018-12-01T12:01:21.769Z,11.00
2018-12-01T12:02:21.926Z,10.50
2018-12-01T12:03:22.022Z,10.50
2018-12-01T12:04:22.181Z,11.10
2018-12-01T12:05:22.267Z,10.30
2018-12-01T12:06:22.356Z,10.60
2018-12-01T12:07:22.440Z,10.70
2018-12-01T12:08:22.833Z,10.80
2018-12-01T12:09:23.211Z,11.30
2018-12-01T12:11:23.352Z,11.30
2018-12-01T12:12:23.447Z,10.80
2018-12-01T12:13:23.824Z,10.10
2018-12-01T12:14:23.810Z,11.20
2018-12-01T12:15:24.209Z,11.50
2018-12-01T12:16:24.433Z,10.20
2018-12-01T12:17:24.954Z,10.70
2018-12-01T12:18:24.764Z,10.90
2018-12-01T12:19:25.094Z,10.40
2018-12-01T12:20:25.342Z,11.10
2018-12-01T12:21:25.748Z,10.50
2018-12-01T12:22:26.138Z,10.00
2018-12-01T12:23:26.462Z,10.00
2018-12-01T12:24:26.773Z,10.30
2018-12-01T12:25:27.094Z,10.90
2018-12-01T12:26:27.396Z,10.10
2018-12-01T12:27:27.730Z,10.70
2018-12-01T12:28:28.065Z,10.80
2018-12-01T12:29:28.188Z,10.50
2018-12-01T12:30:28.373Z,10.50
2018-12-01T12:31:28.690Z,10.70
2018-12-01T12:32:28.955Z,10.70
2018-12-01T12:33:29.470Z,11.30
2018-12-01T12:34:29.313Z,10.90
2018-12-01T12:35:29.585Z,10.90
2018-12-01T12:36:29.872Z,11.10
2018-12-01T12:37:30.150Z,11.40
2018-12-01T12:38:30.426Z,10.20
2018-12-01T12:39:30.885Z,10.60
2018-12-01T12:40:31.152Z,10.70
2018-12-01T12:41:31.475Z,10.90
2018-12-01T12:42:31.766Z,10.90
2018-12-01T12:43:32.047Z,10.70
2018-12-01T12:44:32.361Z,10.90
2018-12-01T12:45:32.668Z,11.60
2018-12-01T12:46:34.067Z,11.80
2018-12-01T12:47:33.365Z,11.30
2018-12-01T12:48:33.378Z,11.20
2018-12-01T12:49:33.502Z,12.50
2018-12-01T12:50:33.693Z,11.10
2018-12-01T12:51:33.787Z,11.00
2018-12-01T12:52:33.915Z,12.50
2018-12-01T12:53:34.020Z,11.60
2018-12-01T12:54:34.134Z,11.20
2018-12-01T12:55:34.268Z,11.70
2018-12-01T12:56:34.420Z,12.40
2018-12-01T12:57:34.577Z,11.10
2018-12-01T12:58:34.967Z,10.40
2018-12-01T12:59:35.085Z,10.70
2018-12-01T13:00:36.504Z,11.60
2018-12-01T13:01:35.353Z,11.00
2018-12-01T13:02:35.496Z,10.90
2018-12-01T13:03:35.645Z,10.90
2018-12-01T13:04:35.781Z,11.10
2018-12-01T13:05:35.908Z,10.90
2018-12-01T13:06:36.222Z,12.00